Time;durP1;ratioP1;P1;durP2;ratioP2;P2;SDS_P1;SDS_P2;PMS_P1;PMS_P2;Temp;Humidity;BMP_temperature;BMP_pressure;BME280_temperature;BME280_humidity;BME280_pressure;Samples;Min_cycle;Max_cycle;Signal;HPM_P1;HPM_P2
2021/11/18 00:02:05;;;;;;;;;130.75;124.75;8.80;72.90;;;;;;5097616;28;8802;-69
2021/11/18 00:04:31;;;;;;;;;130.00;125.75;9.10;72.10;;;;;;5097544;28;8788;-71
2021/11/18 00:06:57;;;;;;;;;127.00;119.25;9.10;71.80;;;;;;5097553;28;8775;-71
2021/11/18 00:09:23;;;;;;;;;130.25;123.75;9.30;71.30;;;;;;5097671;28;8799;-70
2021/11/18 00:11:50;;;;;;;;;134.75;127.00;9.10;71.40;;;;;;5097722;28;9413;-70
2021/11/18 00:14:18;;;;;;;;;132.50;122.00;9.20;71.60;;;;;;5097375;28;8772;-69
2021/11/18 00:16:45;;;;;;;;;132.00;127.00;9.20;71.50;;;;;;5097351;28;8760;-69
2021/11/18 00:19:11;;;;;;;;;127.00;122.00;9.40;70.70;;;;;;5097563;28;8818;-70
2021/11/18 00:21:39;;;;;;;;;136.25;128.25;9.40;70.70;;;;;;5097211;28;8771;-69
2021/11/18 00:24:08;;;;;;;;;124.25;116.25;9.40;70.20;;;;;;5097519;28;8775;-68
2021/11/18 00:26:34;;;;;;;;;124.25;118.25;9.20;70.90;;;;;;5097144;28;8783;-69
2021/11/18 00:29:01;;;;;;;;;91.50;83.50;9.30;71.30;;;;;;5097422;28;8823;-68
2021/11/18 00:31:37;;;;;;;;;110.25;106.00;9.30;71.00;;;;;;5097024;28;8797;-72
2021/11/18 00:34:04;;;;;;;;;114.25;108.00;9.30;71.00;;;;;;5097173;28;8756;-65
2021/11/18 00:36:30;;;;;;;;;107.00;101.75;9.20;71.50;;;;;;5097132;28;9381;-67
2021/11/18 00:38:56;;;;;;;;;113.25;112.00;9.10;71.80;;;;;;5096125;28;8772;-67
2021/11/18 00:41:22;;;;;;;;;115.00;102.75;8.90;72.40;;;;;;5097131;28;8764;-66
2021/11/18 00:43:49;;;;;;;;;113.00;107.50;9.40;71.10;;;;;;5096949;28;8871;-68
2021/11/18 00:46:16;;;;;;;;;113.75;106.00;9.30;71.00;;;;;;5096841;28;8763;-66
2021/11/18 00:48:42;;;;;;;;;106.50;103.50;9.10;71.70;;;;;;5096508;28;8807;-67
2021/11/18 00:51:11;;;;;;;;;117.25;109.25;9.30;71.60;;;;;;5096730;28;8780;-68
2021/11/18 00:53:42;;;;;;;;;116.75;111.00;9.60;70.40;;;;;;5096638;28;8759;-68
2021/11/18 00:56:08;;;;;;;;;105.00;103.50;9.10;71.60;;;;;;5096731;28;8764;-67
2021/11/18 00:58:34;;;;;;;;;103.50;99.25;8.90;73.20;;;;;;5096780;28;8927;-68
2021/11/18 01:01:01;;;;;;;;;105.00;104.25;9.10;72.90;;;;;;5096525;28;8768;-69
2021/11/18 01:03:27;;;;;;;;;110.50;107.00;8.90;73.40;;;;;;5096824;28;9370;-69
2021/11/18 01:05:55;;;;;;;;;108.50;102.50;8.90;73.70;;;;;;5096439;28;8776;-69
2021/11/18 01:08:21;;;;;;;;;116.50;110.75;8.80;74.20;;;;;;5096662;28;8771;-68
2021/11/18 01:11:00;;;;;;;;;105.75;100.25;9.00;73.70;;;;;;5096548;28;8829;-68
2021/11/18 01:13:28;;;;;;;;;109.75;104.00;8.90;74.00;;;;;;5096323;28;8764;-67
2021/11/18 01:15:55;;;;;;;;;115.00;104.00;9.20;73.20;;;;;;5096121;28;8764;-68
2021/11/18 01:18:22;;;;;;;;;113.75;107.50;9.60;71.30;;;;;;5096491;28;8780;-69
2021/11/18 01:20:48;;;;;;;;;106.00;99.75;9.80;70.20;;;;;;5096159;28;8767;-67
2021/11/18 01:23:21;;;;;;;;;105.50;99.50;9.40;71.90;;;;;;5096108;28;9451;-67
2021/11/18 01:25:46;;;;;;;;;111.00;105.50;9.30;72.50;;;;;;5096334;28;8879;-67
2021/11/18 01:28:13;;;;;;;;;106.25;103.50;9.50;72.00;;;;;;5096096;28;8808;-67
2021/11/18 01:30:40;;;;;;;;;109.00;105.25;9.60;71.30;;;;;;5096084;28;9477;-70
2021/11/18 01:33:10;;;;;;;;;114.00;105.50;9.70;70.90;;;;;;5095851;28;8772;-66
2021/11/18 01:35:36;;;;;;;;;103.25;99.50;9.50;71.30;;;;;;5096078;28;8766;-67
2021/11/18 01:38:03;;;;;;;;;118.00;110.00;9.30;72.50;;;;;;5095755;28;8795;-68
2021/11/18 01:40:33;;;;;;;;;130.00;118.25;9.50;72.00;;;;;;5077815;28;8939;-69
2021/11/18 01:43:00;;;;;;;;;124.00;112.00;9.60;71.50;;;;;;5095727;28;8864;-68
2021/11/18 01:45:28;;;;;;;;;129.25;120.50;9.90;70.60;;;;;;5095578;28;8752;-68
2021/11/18 01:47:54;;;;;;;;;123.00;111.75;9.70;71.10;;;;;;5095417;28;8804;-69
2021/11/18 01:50:23;;;;;;;;;122.00;115.75;9.80;70.60;;;;;;5095353;28;8799;-69
2021/11/18 01:52:51;;;;;;;;;120.00;112.25;9.50;71.90;;;;;;5095796;28;8752;-69
2021/11/18 01:55:20;;;;;;;;;125.00;119.00;9.70;71.50;;;;;;5095535;28;8748;-68
2021/11/18 01:57:47;;;;;;;;;112.75;106.75;9.80;71.00;;;;;;5095470;28;8787;-68
2021/11/18 02:00:19;;;;;;;;;120.00;115.25;9.90;70.60;;;;;;5095346;28;8768;-68
2021/11/18 02:02:46;;;;;;;;;116.00;109.50;10.10;70.00;;;;;;5095425;28;8837;-68
2021/11/18 02:05:25;;;;;;;;;118.50;114.25;10.40;68.70;;;;;;5095248;28;8841;-67
2021/11/18 02:07:52;;;;;;;;;122.75;113.75;10.60;67.90;;;;;;5095482;28;8760;-67
2021/11/18 02:10:30;;;;;;;;;124.25;118.75;10.80;67.30;;;;;;5095321;28;8792;-69
2021/11/18 02:13:00;;;;;;;;;126.50;120.50;10.90;66.80;;;;;;5095216;28;8779;-69
2021/11/18 02:15:30;;;;;;;;;126.00;120.50;10.60;67.40;;;;;;5095005;28;9357;-69
2021/11/18 02:17:57;;;;;;;;;122.00;116.50;10.40;68.40;;;;;;5095345;28;8768;-67
2021/11/18 02:20:33;;;;;;;;;131.75;125.50;10.10;69.40;;;;;;5094999;28;8790;-70
2021/11/18 02:22:59;;;;;;;;;130.75;123.75;10.40;68.60;;;;;;5095385;28;8740;-70
2021/11/18 02:25:31;;;;;;;;;139.25;128.50;10.20;69.80;;;;;;5094977;28;8764;-68
2021/11/18 02:27:58;;;;;;;;;125.50;118.25;10.00;70.10;;;;;;5095019;28;8810;-69
2021/11/18 02:30:26;;;;;;;;;117.25;113.50;9.70;71.50;;;;;;5094728;28;8948;-69
2021/11/18 02:32:54;;;;;;;;;118.75;110.75;10.10;70.10;;;;;;5094798;28;8788;-71
2021/11/18 02:35:30;;;;;;;;;121.50;115.75;10.20;69.60;;;;;;5094790;28;8767;-68
2021/11/18 02:37:57;;;;;;;;;119.00;114.50;10.10;69.80;;;;;;5094790;28;8756;-70
2021/11/18 02:40:25;;;;;;;;;117.50;112.50;10.00;70.90;;;;;;5094722;28;8763;-68
2021/11/18 02:42:52;;;;;;;;;109.50;101.75;9.70;71.80;;;;;;5094947;28;8791;-69
2021/11/18 02:45:21;;;;;;;;;101.00;98.25;9.50;72.30;;;;;;5094977;28;8756;-68
2021/11/18 02:47:47;;;;;;;;;107.50;105.75;9.40;73.80;;;;;;5094679;28;8792;-68
2021/11/18 02:50:21;;;;;;;;;116.50;104.50;9.40;74.00;;;;;;5094795;28;8804;-70
2021/11/18 02:52:48;;;;;;;;;115.50;112.75;9.50;73.70;;;;;;5094630;28;8763;-69
2021/11/18 02:55:21;;;;;;;;;124.00;112.75;9.50;73.20;;;;;;5094540;28;8771;-70
2021/11/18 02:57:47;;;;;;;;;109.75;105.50;9.40;73.70;;;;;;5094527;28;8860;-70
2021/11/18 03:00:19;;;;;;;;;109.50;104.50;9.50;73.30;;;;;;5094769;28;8756;-70
2021/11/18 03:02:46;;;;;;;;;114.00;105.00;9.40;73.90;;;;;;5094091;28;8784;-69
2021/11/18 03:05:16;;;;;;;;;112.50;110.75;9.60;73.20;;;;;;5094390;28;8810;-69
2021/11/18 03:07:43;;;;;;;;;104.75;102.25;9.30;74.40;;;;;;5094287;28;8788;-68
2021/11/18 03:10:09;;;;;;;;;116.00;109.00;9.60;73.10;;;;;;5094565;28;8799;-68
2021/11/18 03:12:36;;;;;;;;;108.50;102.25;9.40;73.80;;;;;;5094575;28;8771;-67
2021/11/18 03:15:03;;;;;;;;;113.00;109.00;9.30;74.30;;;;;;5094578;28;8814;-67
2021/11/18 03:17:29;;;;;;;;;112.75;109.00;9.30;74.60;;;;;;5094333;28;8862;-69
2021/11/18 03:19:55;;;;;;;;;98.75;91.25;9.30;74.60;;;;;;5094392;28;9532;-67
2021/11/18 03:22:21;;;;;;;;;99.25;96.50;9.30;74.90;;;;;;5094247;28;8794;-69
2021/11/18 03:24:47;;;;;;;;;107.00;104.50;9.20;75.10;;;;;;5094239;28;8844;-67
2021/11/18 03:27:12;;;;;;;;;114.75;110.50;9.10;75.50;;;;;;5094078;28;8776;-67
2021/11/18 03:29:38;;;;;;;;;103.50;99.50;8.90;76.40;;;;;;5094076;28;8829;-69
2021/11/18 03:32:05;;;;;;;;;101.75;100.50;9.00;76.40;;;;;;5094397;28;8756;-68
2021/11/18 03:34:33;;;;;;;;;102.00;96.50;8.90;76.70;;;;;;5094083;28;8778;-67
2021/11/18 03:36:59;;;;;;;;;112.25;107.75;8.90;77.00;;;;;;5094123;28;8819;-68
2021/11/18 03:39:26;;;;;;;;;115.00;100.25;9.20;76.20;;;;;;5094099;28;8764;-70
2021/11/18 03:41:55;;;;;;;;;109.25;101.50;9.20;75.80;;;;;;5093125;28;8776;-66
2021/11/18 03:44:23;;;;;;;;;112.50;104.25;9.30;75.10;;;;;;5094048;28;8784;-66
2021/11/18 03:46:58;;;;;;;;;109.75;105.50;9.40;74.80;;;;;;5091638;28;8779;-68
2021/11/18 03:49:25;;;;;;;;;112.00;99.50;9.60;74.20;;;;;;5093027;28;9453;-69
2021/11/18 03:51:53;;;;;;;;;102.00;99.50;9.40;74.60;;;;;;5093986;28;8787;-67
2021/11/18 03:54:21;;;;;;;;;107.25;104.00;9.60;74.30;;;;;;5094078;28;8784;-67
2021/11/18 03:56:48;;;;;;;;;110.25;103.75;9.50;73.90;;;;;;5093910;28;8767;-68
2021/11/18 03:59:20;;;;;;;;;115.75;108.50;9.40;74.60;;;;;;5094300;28;8807;-68
2021/11/18 04:01:47;;;;;;;;;109.00;98.00;9.30;75.10;;;;;;5093926;28;8752;-70
2021/11/18 04:04:16;;;;;;;;;110.50;102.75;9.20;75.40;;;;;;5093788;28;8828;-69
2021/11/18 04:06:42;;;;;;;;;114.25;106.75;9.40;75.20;;;;;;5093811;28;8788;-67
2021/11/18 04:09:08;;;;;;;;;113.25;108.75;9.20;75.50;;;;;;5093765;28;8896;-69
2021/11/18 04:11:35;;;;;;;;;104.25;98.00;9.40;75.40;;;;;;5093860;28;8790;-67
2021/11/18 04:14:02;;;;;;;;;108.50;107.00;9.70;73.90;;;;;;5093806;28;8888;-68
2021/11/18 04:16:28;;;;;;;;;110.50;104.00;9.60;73.80;;;;;;5097547;28;8748;-67
2021/11/18 04:18:54;;;;;;;;;109.50;107.25;9.40;75.00;;;;;;5097625;28;8784;-68
2021/11/18 04:21:19;;;;;;;;;107.00;100.00;9.30;75.10;;;;;;5097326;28;9424;-68
2021/11/18 04:23:45;;;;;;;;;118.25;114.75;9.30;75.80;;;;;;5097288;28;8809;-68
2021/11/18 04:26:12;;;;;;;;;103.75;99.25;9.30;75.50;;;;;;5097578;28;8834;-70
2021/11/18 04:28:38;;;;;;;;;107.00;104.75;9.10;76.10;;;;;;5097474;28;9506;-68
2021/11/18 04:31:12;;;;;;;;;110.75;105.50;9.10;76.50;;;;;;5097467;28;8791;-68
2021/11/18 04:33:39;;;;;;;;;103.50;101.00;9.00;77.00;;;;;;5097218;28;8752;-69
2021/11/18 04:36:08;;;;;;;;;105.50;97.25;9.20;75.70;;;;;;5097112;28;8766;-69
2021/11/18 04:38:34;;;;;;;;;96.50;95.00;9.10;76.30;;;;;;5096469;28;8800;-70
2021/11/18 04:41:00;;;;;;;;;97.50;91.25;8.80;77.90;;;;;;5097288;28;8890;-68
2021/11/18 04:43:26;;;;;;;;;94.25;90.00;8.70;78.60;;;;;;5096837;28;8775;-70
2021/11/18 04:45:52;;;;;;;;;100.00;96.75;8.90;77.90;;;;;;5097052;28;8866;-70
2021/11/18 04:48:19;;;;;;;;;95.75;90.50;8.70;78.60;;;;;;5096678;28;8815;-67
2021/11/18 04:50:45;;;;;;;;;99.50;95.00;8.50;79.90;;;;;;5096717;28;8806;-69
2021/11/18 04:53:12;;;;;;;;;97.00;93.50;9.10;77.80;;;;;;5096949;28;8772;-68
2021/11/18 04:55:38;;;;;;;;;96.00;92.00;9.20;76.40;;;;;;5096622;28;8878;-68
2021/11/18 04:58:06;;;;;;;;;101.50;96.00;9.50;75.50;;;;;;5096527;28;8808;-70
2021/11/18 05:00:39;;;;;;;;;104.50;99.25;9.60;74.90;;;;;;5096706;28;9461;-69
2021/11/18 05:03:06;;;;;;;;;104.75;101.00;9.60;74.80;;;;;;5096319;28;8771;-71
2021/11/18 05:05:33;;;;;;;;;99.75;95.25;9.70;74.10;;;;;;5096688;28;8822;-71
2021/11/18 05:07:59;;;;;;;;;99.25;94.75;9.50;75.00;;;;;;5096212;28;8767;-71
2021/11/18 05:10:25;;;;;;;;;100.75;94.75;9.80;74.00;;;;;;5096283;28;8822;-70
2021/11/18 05:12:51;;;;;;;;;99.75;97.25;9.70;73.90;;;;;;5096429;28;9622;-70
2021/11/18 05:15:20;;;;;;;;;107.75;98.75;9.90;73.30;;;;;;5096311;28;8821;-70
2021/11/18 05:17:47;;;;;;;;;103.00;94.50;10.00;72.90;;;;;;5096189;28;8759;-68
2021/11/18 05:20:14;;;;;;;;;107.00;101.50;10.00;72.80;;;;;;5096393;28;8792;-69
2021/11/18 05:22:40;;;;;;;;;107.00;101.75;10.10;72.80;;;;;;5096031;28;8759;-69
2021/11/18 05:25:07;;;;;;;;;104.00;97.50;10.40;71.20;;;;;;5095925;28;8785;-71
2021/11/18 05:27:33;;;;;;;;;92.00;87.75;10.40;71.30;;;;;;5095973;28;9465;-71
2021/11/18 05:29:59;;;;;;;;;102.00;97.25;10.20;71.70;;;;;;5095850;28;8816;-70
2021/11/18 05:32:25;;;;;;;;;103.50;96.25;10.30;71.80;;;;;;5095876;28;8772;-70
2021/11/18 05:34:51;;;;;;;;;94.00;90.25;10.40;71.20;;;;;;5096128;28;8764;-71
2021/11/18 05:37:17;;;;;;;;;91.75;88.50;9.60;73.70;;;;;;5095819;28;8756;-72
2021/11/18 05:39:43;;;;;;;;;98.75;91.50;9.50;75.30;;;;;;5093845;28;8796;-71
2021/11/18 05:42:09;;;;;;;;;93.25;88.75;9.80;74.10;;;;;;5086606;28;8802;-69
2021/11/18 05:44:35;;;;;;;;;90.75;84.75;9.80;74.60;;;;;;5095327;28;8764;-71
2021/11/18 05:47:01;;;;;;;;;93.00;85.00;10.00;73.10;;;;;;5095524;28;8878;-68
2021/11/18 05:49:27;;;;;;;;;95.50;92.00;10.00;73.60;;;;;;5094914;28;8888;-68
2021/11/18 05:51:53;;;;;;;;;94.25;91.00;9.80;74.10;;;;;;5095705;28;8776;-68
2021/11/18 05:54:19;;;;;;;;;91.50;86.25;10.30;73.00;;;;;;5093952;28;8788;-67
2021/11/18 05:56:45;;;;;;;;;94.50;85.75;10.50;71.90;;;;;;5095380;28;8775;-66
2021/11/18 05:59:12;;;;;;;;;91.00;85.25;10.20;72.70;;;;;;5094562;28;8795;-72
2021/11/18 06:01:38;;;;;;;;;99.50;92.50;10.10;73.20;;;;;;5095476;28;8755;-73
2021/11/18 06:04:06;;;;;;;;;101.75;98.00;10.40;72.40;;;;;;5095634;28;8760;-67
2021/11/18 06:06:33;;;;;;;;;103.00;96.00;10.50;72.10;;;;;;5085521;28;8784;-69
2021/11/18 06:09:03;;;;;;;;;96.50;93.50;10.70;71.40;;;;;;5095106;28;9450;-71
2021/11/18 06:11:35;;;;;;;;;92.75;87.50;10.80;70.50;;;;;;5094799;28;8768;-70
2021/11/18 06:14:02;;;;;;;;;91.25;83.00;11.00;70.10;;;;;;5095172;28;8766;-69
2021/11/18 06:16:28;;;;;;;;;93.00;86.25;10.80;70.80;;;;;;5095321;28;8756;-62
2021/11/18 06:18:58;;;;;;;;;89.50;82.25;10.90;70.60;;;;;;5094918;28;8760;-65
2021/11/18 06:21:24;;;;;;;;;96.00;85.50;10.90;70.50;;;;;;5095549;28;8755;-63
2021/11/18 06:23:51;;;;;;;;;92.75;85.25;10.90;70.30;;;;;;5094955;28;8775;-65
2021/11/18 06:26:18;;;;;;;;;90.50;82.00;10.70;71.00;;;;;;5095052;28;8772;-65
2021/11/18 06:28:44;;;;;;;;;92.75;82.00;10.60;71.50;;;;;;5095217;28;8837;-63
2021/11/18 06:31:13;;;;;;;;;89.00;79.50;10.70;71.00;;;;;;5094908;28;8751;-63
2021/11/18 06:33:40;;;;;;;;;87.25;78.25;10.50;71.80;;;;;;5095205;28;8771;-65
2021/11/18 06:36:07;;;;;;;;;88.75;83.00;10.90;70.50;;;;;;5094851;28;8806;-63
2021/11/18 06:38:39;;;;;;;;;84.25;71.25;11.10;69.70;;;;;;5093687;28;8768;-64
2021/11/18 06:41:05;;;;;;;;;87.00;79.50;11.30;68.70;;;;;;5094957;28;8771;-63
2021/11/18 06:43:31;;;;;;;;;89.00;80.75;11.40;68.20;;;;;;5094832;28;8827;-63
2021/11/18 06:45:58;;;;;;;;;92.25;81.75;11.40;68.10;;;;;;5094696;28;8760;-63
2021/11/18 06:48:30;;;;;;;;;85.00;69.75;11.50;67.70;;;;;;5094450;28;8865;-65
2021/11/18 06:51:00;;;;;;;;;84.25;73.50;11.10;68.80;;;;;;5094795;28;8791;-63
2021/11/18 06:53:28;;;;;;;;;90.25;84.75;11.00;69.30;;;;;;5094757;28;8776;-65
2021/11/18 06:55:54;;;;;;;;;85.00;71.50;11.20;68.80;;;;;;5094813;28;8763;-64
2021/11/18 06:58:20;;;;;;;;;86.50;75.75;11.20;68.60;;;;;;5094894;28;8776;-62
2021/11/18 07:00:46;;;;;;;;;83.00;66.75;10.40;71.20;;;;;;5094684;28;8768;-62
2021/11/18 07:03:12;;;;;;;;;82.25;64.50;10.20;73.00;;;;;;5094318;28;8768;-62
2021/11/18 07:05:39;;;;;;;;;75.00;61.00;9.80;73.90;;;;;;5094379;28;8849;-63
2021/11/18 07:08:07;;;;;;;;;85.00;73.50;9.30;76.30;;;;;;5094614;28;9409;-63
2021/11/18 07:10:33;;;;;;;;;82.25;68.25;9.30;77.10;;;;;;5094502;28;9437;-63
2021/11/18 07:12:59;;;;;;;;;81.00;66.25;9.10;78.10;;;;;;5094336;28;8811;-63
2021/11/18 07:15:29;;;;;;;;;85.00;73.50;9.20;77.60;;;;;;5094325;28;8744;-63
2021/11/18 07:17:56;;;;;;;;;78.50;62.25;9.00;78.30;;;;;;5094590;28;9402;-63
2021/11/18 07:20:24;;;;;;;;;86.25;75.75;9.10;78.20;;;;;;5094336;28;8907;-63
2021/11/18 07:22:50;;;;;;;;;81.00;69.75;9.20;77.60;;;;;;5094323;28;8740;-65
2021/11/18 07:25:21;;;;;;;;;93.25;84.00;9.50;76.80;;;;;;5094266;28;8890;-65
2021/11/18 07:27:49;;;;;;;;;92.00;83.00;9.60;76.80;;;;;;5094207;28;8914;-63
2021/11/18 07:30:16;;;;;;;;;88.50;79.00;9.90;75.20;;;;;;5094065;28;8811;-62
2021/11/18 07:32:43;;;;;;;;;92.50;82.25;9.80;74.90;;;;;;5094104;28;8810;-63
2021/11/18 07:35:11;;;;;;;;;93.00;83.50;9.90;75.00;;;;;;5094067;28;8767;-61
2021/11/18 07:37:37;;;;;;;;;93.00;88.00;9.60;75.60;;;;;;5076257;28;8784;-61
2021/11/18 07:40:06;;;;;;;;;90.25;82.25;9.50;76.50;;;;;;5094132;28;8869;-63
2021/11/18 07:42:32;;;;;;;;;90.00;83.50;9.50;76.20;;;;;;5094021;28;8760;-61
2021/11/18 07:44:59;;;;;;;;;99.00;91.50;9.70;76.10;;;;;;5093694;28;8756;-62
2021/11/18 07:47:24;;;;;;;;;90.00;84.00;9.90;75.20;;;;;;5076069;28;8791;-62
2021/11/18 07:49:50;;;;;;;;;83.50;70.75;9.70;75.40;;;;;;5096771;28;8864;-62
2021/11/18 07:52:16;;;;;;;;;94.50;85.00;9.70;76.10;;;;;;5098104;28;8894;-62
2021/11/18 07:54:42;;;;;;;;;88.50;81.50;9.70;75.50;;;;;;5098100;28;9431;-62
2021/11/18 07:57:08;;;;;;;;;80.50;66.75;9.70;76.10;;;;;;5097876;28;8778;-61
2021/11/18 07:59:34;;;;;;;;;87.50;74.75;9.60;76.50;;;;;;5097965;28;8764;-62
2021/11/18 08:01:59;;;;;;;;;83.00;69.75;9.40;77.20;;;;;;5097943;28;8774;-62
2021/11/18 08:04:25;;;;;;;;;90.00;83.50;9.30;77.50;;;;;;5097476;28;8790;-62
2021/11/18 08:06:51;;;;;;;;;87.25;79.00;9.30;78.00;;;;;;5097579;28;8870;-65
2021/11/18 08:09:17;;;;;;;;;88.75;78.50;9.30;77.50;;;;;;5097419;28;8869;-61
2021/11/18 08:11:50;;;;;;;;;85.50;76.00;9.20;78.00;;;;;;5097837;28;8776;-61
2021/11/18 08:14:16;;;;;;;;;91.00;82.00;9.30;77.50;;;;;;5097485;28;8775;-61
2021/11/18 08:16:43;;;;;;;;;84.75;72.50;9.40;77.40;;;;;;5097377;28;8784;-62
2021/11/18 08:19:09;;;;;;;;;89.00;80.50;9.60;76.50;;;;;;5097338;28;8756;-63
2021/11/18 08:21:35;;;;;;;;;90.00;84.75;9.80;75.70;;;;;;5097532;28;8873;-62
2021/11/18 08:24:03;;;;;;;;;92.00;83.50;9.50;76.30;;;;;;5097490;28;8752;-62
2021/11/18 08:26:30;;;;;;;;;89.50;85.25;9.70;75.80;;;;;;5097364;28;8748;-62
2021/11/18 08:28:56;;;;;;;;;96.25;88.75;9.70;76.20;;;;;;5097421;28;9490;-63
2021/11/18 08:31:23;;;;;;;;;94.00;84.25;9.80;74.90;;;;;;5097136;28;8768;-64
2021/11/18 08:33:50;;;;;;;;;90.50;82.25;9.80;74.90;;;;;;5097090;28;8760;-63
2021/11/18 08:36:17;;;;;;;;;88.00;81.50;9.80;74.80;;;;;;5097016;28;8779;-62
2021/11/18 08:38:43;;;;;;;;;89.50;80.75;9.90;74.40;;;;;;5097115;28;8779;-63
2021/11/18 08:41:11;;;;;;;;;85.00;75.25;10.00;74.50;;;;;;5097046;28;8764;-62
2021/11/18 08:43:41;;;;;;;;;88.25;81.50;9.80;74.60;;;;;;5097129;28;8770;-62
2021/11/18 08:46:09;;;;;;;;;79.75;67.25;9.80;75.10;;;;;;5096738;28;8756;-65
2021/11/18 08:48:35;;;;;;;;;80.25;66.00;10.00;73.60;;;;;;5096798;28;8919;-62
2021/11/18 08:51:02;;;;;;;;;82.50;71.00;9.90;73.50;;;;;;5096698;28;8804;-63
2021/11/18 08:53:31;;;;;;;;;80.00;64.50;9.80;74.20;;;;;;5097012;28;8752;-62
2021/11/18 08:55:57;;;;;;;;;81.75;65.00;9.60;74.90;;;;;;5096264;28;8764;-64
2021/11/18 08:58:26;;;;;;;;;87.00;71.25;9.60;75.50;;;;;;5078646;28;8814;-62
2021/11/18 09:01:03;;;;;;;;;84.75;71.75;9.80;74.70;;;;;;5095767;28;8946;-61
2021/11/18 09:03:33;;;;;;;;;86.75;74.00;9.90;74.40;;;;;;5096718;28;8790;-63
2021/11/18 09:06:02;;;;;;;;;83.75;72.50;9.80;74.90;;;;;;5096420;28;8772;-61
2021/11/18 09:08:28;;;;;;;;;77.75;62.50;9.80;74.30;;;;;;5096613;28;8817;-61
2021/11/18 09:10:54;;;;;;;;;87.25;73.00;10.00;74.00;;;;;;5096588;28;8799;-61
2021/11/18 09:13:20;;;;;;;;;81.50;68.00;10.10;73.60;;;;;;5096592;28;8775;-65
2021/11/18 09:15:46;;;;;;;;;85.75;70.00;9.80;74.20;;;;;;5096470;28;8783;-65
2021/11/18 09:18:14;;;;;;;;;82.25;72.50;9.60;75.40;;;;;;5096230;28;8784;-65
2021/11/18 09:20:41;;;;;;;;;84.00;70.00;9.50;76.30;;;;;;5095946;28;8775;-63
2021/11/18 09:23:08;;;;;;;;;83.00;71.25;9.60;75.90;;;;;;5078078;28;8767;-63
2021/11/18 09:25:40;;;;;;;;;84.25;75.50;10.00;74.30;;;;;;5096297;28;8752;-64
2021/11/18 09:28:08;;;;;;;;;81.50;69.25;10.30;73.20;;;;;;5096314;28;9453;-63
2021/11/18 09:30:45;;;;;;;;;82.25;67.50;10.00;73.80;;;;;;5096178;28;8787;-64
2021/11/18 09:33:12;;;;;;;;;81.25;69.25;9.90;74.10;;;;;;5096076;28;8759;-64
2021/11/18 09:35:45;;;;;;;;;80.00;65.50;10.10;73.70;;;;;;5095862;28;8784;-66
2021/11/18 09:38:13;;;;;;;;;79.75;68.00;10.10;73.00;;;;;;5096153;28;8740;-64
2021/11/18 09:40:57;;;;;;;;;76.00;62.50;10.10;73.50;;;;;;5096142;28;8756;-63
2021/11/18 09:43:35;;;;;;;;;79.00;66.50;10.20;72.60;;;;;;5095785;28;8837;-61
2021/11/18 09:46:42;;;;;;;;;80.75;69.50;10.30;72.30;;;;;;5095917;28;8755;-63
2021/11/18 09:49:29;;;;;;;;;80.00;65.25;10.30;71.90;;;;;;5095172;28;8802;-63
2021/11/18 09:52:21;;;;;;;;;80.75;67.50;9.90;73.20;;;;;;5095768;28;8751;-63
2021/11/18 09:55:08;;;;;;;;;79.00;63.00;10.30;72.50;;;;;;5059488;28;8760;-65
2021/11/18 09:58:07;;;;;;;;;75.00;60.25;10.20;72.30;;;;;;5095704;28;8788;-64
2021/11/18 10:01:04;;;;;;;;;76.00;62.75;10.20;72.10;;;;;;5095705;28;9437;-64
2021/11/18 10:03:50;;;;;;;;;78.25;65.25;10.10;73.60;;;;;;5095389;28;8764;-63
2021/11/18 10:06:42;;;;;;;;;82.00;70.00;10.20;72.00;;;;;;5095319;28;8841;-62
2021/11/18 10:09:37;;;;;;;;;83.00;68.50;10.30;71.80;;;;;;5091741;28;8776;-63
2021/11/18 10:12:14;;;;;;;;;81.00;69.00;10.30;71.50;;;;;;5077330;28;8767;-63
2021/11/18 10:14:54;;;;;;;;;73.50;60.50;10.40;71.90;;;;;;5095478;28;8771;-62
2021/11/18 10:17:25;;;;;;;;;76.50;63.25;10.20;71.70;;;;;;5095185;28;8764;-66
2021/11/18 10:19:57;;;;;;;;;82.25;73.25;10.40;70.90;;;;;;5095088;28;9267;-63
2021/11/18 10:22:24;;;;;;;;;77.25;63.00;10.40;71.20;;;;;;5095263;28;8913;-63
2021/11/18 10:24:53;;;;;;;;;82.00;70.00;10.20;71.30;;;;;;5094944;28;8775;-65
2021/11/18 10:27:24;;;;;;;;;74.00;60.25;10.20;71.80;;;;;;5094749;28;8884;-63
2021/11/18 10:29:59;;;;;;;;;77.75;65.75;10.20;71.10;;;;;;5095015;28;8890;-63
2021/11/18 10:32:29;;;;;;;;;79.75;66.50;10.30;70.90;;;;;;5094829;28;8829;-65
2021/11/18 10:35:08;;;;;;;;;69.75;57.50;10.20;71.00;;;;;;5095176;28;9402;-63
2021/11/18 10:37:43;;;;;;;;;74.25;63.25;10.20;70.90;;;;;;5095140;28;8883;-63
2021/11/18 10:40:48;;;;;;;;;73.75;60.25;10.40;70.20;;;;;;5095094;28;8877;-65
2021/11/18 10:43:17;;;;;;;;;67.75;54.75;10.80;68.40;;;;;;5010703;28;8813;-63
2021/11/18 10:45:43;;;;;;;;;64.50;53.00;10.70;68.40;;;;;;5012630;28;8837;-63
2021/11/18 10:48:14;;;;;;;;;62.00;51.75;10.50;68.70;;;;;;5012349;28;8833;-64
2021/11/18 10:51:04;;;;;;;;;59.75;50.50;10.40;68.60;;;;;;5012565;28;8821;-64
2021/11/18 10:53:48;;;;;;;;;59.75;50.50;10.40;68.60;;;;;;5012454;28;8797;-63
2021/11/18 10:56:19;;;;;;;;;61.25;51.25;10.40;68.10;;;;;;5012472;28;8942;-66
2021/11/18 10:59:00;;;;;;;;;60.00;50.75;10.30;68.20;;;;;;5012389;28;8943;-63
2021/11/18 11:01:27;;;;;;;;;58.25;49.00;10.20;68.80;;;;;;5012532;28;9490;-64
2021/11/18 11:03:56;;;;;;;;;54.25;46.25;10.50;68.30;;;;;;5012478;28;9427;-63
2021/11/18 11:06:25;;;;;;;;;52.00;45.00;10.50;67.80;;;;;;5010798;28;8806;-63
2021/11/18 11:09:18;;;;;;;;;58.75;49.75;10.70;66.80;;;;;;5010799;28;8796;-61
2021/11/18 11:11:56;;;;;;;;;61.25;49.75;10.70;67.20;;;;;;5009248;28;8777;-62
2021/11/18 11:14:41;;;;;;;;;58.00;47.00;10.60;66.50;;;;;;5008586;28;8804;-63
2021/11/18 11:17:15;;;;;;;;;44.75;40.50;10.70;66.40;;;;;;5009567;28;8839;-68
2021/11/18 11:19:58;;;;;;;;;54.50;46.50;10.50;66.90;;;;;;5058007;28;8806;-68
2021/11/18 11:22:30;;;;;;;;;54.75;45.50;10.50;67.10;;;;;;5090184;28;8818;-68
2021/11/18 11:25:05;;;;;;;;;59.75;49.25;10.70;66.30;;;;;;5095402;28;8766;-68
2021/11/18 11:28:01;;;;;;;;;55.75;46.00;10.60;65.80;;;;;;5097178;28;8826;-67
2021/11/18 11:31:02;;;;;;;;;53.00;45.25;10.60;66.10;;;;;;5095638;28;8783;-68
2021/11/18 11:33:28;;;;;;;;;49.00;42.75;10.90;65.30;;;;;;5096233;28;8776;-68
2021/11/18 11:36:16;;;;;;;;;44.50;40.00;10.90;64.10;;;;;;5098645;28;8754;-68
2021/11/18 11:39:01;;;;;;;;;51.50;44.00;10.80;64.60;;;;;;5098589;28;8777;-68
2021/11/18 11:41:52;;;;;;;;;42.75;39.00;11.00;63.70;;;;;;5097705;28;8768;-68
2021/11/18 11:44:31;;;;;;;;;54.50;47.00;11.00;63.70;;;;;;5087181;28;8878;-68
2021/11/18 11:47:25;;;;;;;;;46.75;40.00;10.80;64.40;;;;;;5097983;28;9678;-67
2021/11/18 11:50:32;;;;;;;;;48.00;41.50;10.60;64.50;;;;;;5096822;28;8790;-67
2021/11/18 11:53:04;;;;;;;;;49.00;41.50;10.80;64.10;;;;;;5014430;28;9465;-67
2021/11/18 11:55:33;;;;;;;;;48.50;41.50;10.70;64.70;;;;;;5081754;28;8882;-67
2021/11/18 11:58:05;;;;;;;;;44.50;40.00;10.80;64.70;;;;;;5094404;28;8772;-67
2021/11/18 12:00:40;;;;;;;;;50.00;43.25;11.00;64.30;;;;;;5092357;28;8828;-68
2021/11/18 12:03:29;;;;;;;;;51.00;42.50;11.10;63.60;;;;;;5096500;28;8744;-67
2021/11/18 12:06:08;;;;;;;;;42.50;38.50;11.00;63.90;;;;;;5094601;28;8740;-68
2021/11/18 12:08:57;;;;;;;;;42.00;39.00;10.90;63.80;;;;;;5094154;28;8730;-67
2021/11/18 12:11:26;;;;;;;;;39.50;36.25;10.80;63.70;;;;;;5056913;28;8859;-67
2021/11/18 12:14:00;;;;;;;;;42.75;38.75;11.00;64.00;;;;;;5091975;28;8748;-69
2021/11/18 12:16:44;;;;;;;;;47.00;41.00;11.20;63.50;;;;;;5096218;28;8722;-66
2021/11/18 12:19:22;;;;;;;;;52.00;44.25;11.40;62.70;;;;;;5093964;28;8830;-66
2021/11/18 12:21:48;;;;;;;;;53.25;44.75;11.50;62.20;;;;;;5093932;28;8918;-65
2021/11/18 12:24:20;;;;;;;;;53.50;45.75;11.20;62.60;;;;;;5091248;28;8754;-66
2021/11/18 12:26:55;;;;;;;;;51.00;44.25;11.20;62.90;;;;;;5085904;28;8861;-66
2021/11/18 12:29:35;;;;;;;;;54.50;46.50;11.20;62.90;;;;;;5077491;28;8906;-66
2021/11/18 12:32:24;;;;;;;;;49.00;43.25;11.20;63.00;;;;;;5090395;28;8764;-65
2021/11/18 12:34:55;;;;;;;;;43.25;39.25;11.20;63.00;;;;;;5093822;28;8832;-65
2021/11/18 12:37:52;;;;;;;;;48.75;42.50;11.20;62.60;;;;;;5090096;28;8804;-65
2021/11/18 12:40:35;;;;;;;;;48.50;41.25;11.10;62.20;;;;;;5075560;28;8878;-66
2021/11/18 12:43:31;;;;;;;;;33.75;33.25;11.10;62.70;;;;;;5094449;28;8752;-67
2021/11/18 12:46:23;;;;;;;;;48.50;42.00;10.90;63.10;;;;;;5092447;28;8771;-66
2021/11/18 12:48:55;;;;;;;;;45.50;40.50;10.90;63.70;;;;;;5096734;28;8818;-66
2021/11/18 12:51:45;;;;;;;;;39.75;36.50;10.80;63.80;;;;;;5094436;28;9518;-66
2021/11/18 12:54:13;;;;;;;;;49.25;42.00;10.80;64.30;;;;;;5094360;28;8746;-66